createdAt,value
2022-10-29T00:00:00.190Z,95
2022-10-29T00:05:00.201Z,95
2022-10-29T00:10:00.193Z,95
2022-10-29T00:15:00.187Z,95
2022-10-29T00:20:00.279Z,94
2022-10-29T00:25:00.183Z,95
2022-10-29T00:30:00.206Z,95
2022-10-29T00:35:00.179Z,94
2022-10-29T00:40:00.178Z,94
2022-10-29T00:45:00.193Z,94
2022-10-29T00:50:00.180Z,94
2022-10-29T00:55:00.197Z,95
2022-10-29T01:00:00.397Z,95
2022-10-29T01:05:00.183Z,95
2022-10-29T01:10:00.217Z,95
2022-10-29T01:15:00.195Z,96
2022-10-29T01:20:00.191Z,96
2022-10-29T01:25:00.183Z,96
2022-10-29T01:30:00.205Z,96
2022-10-29T01:35:00.197Z,96
2022-10-29T01:40:00.192Z,96
2022-10-29T01:45:00.201Z,96
2022-10-29T01:50:00.202Z,96
2022-10-29T01:55:00.190Z,96
2022-10-29T02:00:00.188Z,96
2022-10-29T02:05:00.178Z,96
2022-10-29T02:10:00.186Z,96
2022-10-29T02:15:00.170Z,97
2022-10-29T02:20:00.173Z,97
2022-10-29T02:25:00.284Z,97
2022-10-29T02:30:00.184Z,97
2022-10-29T02:35:00.200Z,97
2022-10-29T02:40:00.189Z,97
2022-10-29T02:45:00.182Z,97
2022-10-29T02:50:00.189Z,97
2022-10-29T02:55:00.199Z,97
2022-10-29T03:00:00.216Z,97
2022-10-29T03:05:00.225Z,97
2022-10-29T03:10:00.229Z,97
2022-10-29T03:15:00.183Z,97
2022-10-29T03:20:00.202Z,97
2022-10-29T03:25:00.214Z,97
2022-10-29T03:30:00.208Z,98
2022-10-29T03:35:00.249Z,98
2022-10-29T03:40:00.195Z,98
2022-10-29T03:45:00.203Z,98
2022-10-29T03:50:00.215Z,98
2022-10-29T03:55:00.192Z,98
2022-10-29T04:00:00.268Z,98
2022-10-29T04:05:00.210Z,98
2022-10-29T04:10:00.187Z,98
2022-10-29T04:15:00.224Z,98
2022-10-29T04:20:00.195Z,98
2022-10-29T04:30:00.382Z,98
2022-10-29T04:35:00.201Z,98
2022-10-29T04:40:00.202Z,98
2022-10-29T04:45:00.202Z,98
2022-10-29T04:50:00.215Z,98
2022-10-29T04:55:00.195Z,98
2022-10-29T05:00:00.243Z,98
2022-10-29T05:05:00.181Z,98
2022-10-29T05:10:00.202Z,98
2022-10-29T05:15:00.200Z,98
2022-10-29T05:20:00.204Z,98
2022-10-29T05:25:00.205Z,98
2022-10-29T05:30:00.206Z,98
2022-10-29T05:35:00.227Z,98
2022-10-29T05:40:00.199Z,98
2022-10-29T05:45:00.204Z,98
2022-10-29T05:50:00.199Z,98
2022-10-29T05:55:00.216Z,99
2022-10-29T06:00:00.257Z,99
2022-10-29T06:05:00.209Z,99
2022-10-29T06:10:00.215Z,99
2022-10-29T06:15:00.218Z,99
2022-10-29T06:20:00.358Z,99
2022-10-29T06:25:00.206Z,99
2022-10-29T06:30:00.213Z,99
2022-10-29T06:35:00.195Z,99
2022-10-29T06:40:00.196Z,99
2022-10-29T06:45:00.200Z,99
2022-10-29T06:50:00.213Z,99
2022-10-29T06:55:00.204Z,99
2022-10-29T07:00:05.496Z,99
2022-10-29T07:05:00.200Z,99
2022-10-29T07:10:00.231Z,99
2022-10-29T07:15:00.208Z,99
2022-10-29T07:20:00.196Z,99
2022-10-29T07:25:01.359Z,99
2022-10-29T07:30:00.222Z,99
2022-10-29T07:35:00.211Z,99
2022-10-29T07:40:00.323Z,99
2022-10-29T07:45:00.220Z,99
2022-10-29T07:50:00.207Z,99
2022-10-29T07:55:00.221Z,99
2022-10-29T08:00:00.235Z,99
2022-10-29T08:05:00.232Z,99
2022-10-29T08:10:00.264Z,99
2022-10-29T08:15:00.232Z,99
2022-10-29T08:20:00.245Z,98
2022-10-29T08:25:00.202Z,98
2022-10-29T08:30:00.272Z,98
2022-10-29T08:35:00.242Z,97
2022-10-29T08:40:00.218Z,97
2022-10-29T08:45:00.208Z,96
2022-10-29T08:50:00.207Z,95
2022-10-29T08:55:00.232Z,93
2022-10-29T09:00:00.385Z,91
2022-10-29T09:05:00.232Z,89
2022-10-29T09:10:00.227Z,88
2022-10-29T09:15:00.221Z,86
2022-10-29T09:20:00.231Z,85
2022-10-29T09:25:00.206Z,86
2022-10-29T09:30:00.240Z,85
2022-10-29T09:35:00.224Z,85
2022-10-29T09:40:00.231Z,85
2022-10-29T09:45:00.241Z,86
2022-10-29T09:50:05.370Z,85
2022-10-29T09:55:00.204Z,86
2022-10-29T10:00:00.214Z,85
2022-10-29T10:05:00.241Z,85
2022-10-29T10:10:00.205Z,85
2022-10-29T10:15:00.237Z,85
2022-10-29T10:20:00.210Z,85
2022-10-29T10:25:00.213Z,84
2022-10-29T10:30:00.215Z,84
2022-10-29T10:35:00.225Z,83
2022-10-29T10:40:00.233Z,83
2022-10-29T10:45:00.199Z,83
2022-10-29T10:50:00.207Z,83
2022-10-29T10:55:00.216Z,82
2022-10-29T11:00:00.209Z,82
2022-10-29T11:05:03.522Z,81
2022-10-29T11:10:00.255Z,82
2022-10-29T11:15:00.236Z,82
2022-10-29T11:20:00.206Z,81
2022-10-29T11:25:00.209Z,81
2022-10-29T11:30:00.208Z,80
2022-10-29T11:35:00.207Z,80
2022-10-29T11:40:00.210Z,79
2022-10-29T11:45:00.250Z,78
2022-10-29T11:50:00.234Z,77
2022-10-29T11:55:00.551Z,76
2022-10-29T12:00:00.347Z,75
2022-10-29T12:05:00.207Z,74
2022-10-29T12:10:00.220Z,75
2022-10-29T12:15:00.218Z,75
2022-10-29T12:20:00.606Z,76
2022-10-29T12:25:00.216Z,76
2022-10-29T12:30:00.265Z,75
2022-10-29T12:35:00.206Z,74
2022-10-29T12:40:00.087Z,73
2022-10-29T12:50:00.301Z,74
2022-10-29T12:50:28.876Z,74
2022-10-29T12:57:33.294Z,73
2022-10-29T13:05:00.279Z,71
2022-10-29T13:10:00.272Z,70
2022-10-29T13:15:00.236Z,70
2022-10-29T13:20:00.301Z,71
2022-10-29T13:25:00.291Z,72
2022-10-29T13:30:00.264Z,74
2022-10-29T13:35:00.255Z,73
2022-10-29T13:40:00.279Z,74
2022-10-29T13:45:00.257Z,73
2022-10-29T13:50:00.279Z,71
2022-10-29T13:55:00.284Z,70
2022-10-29T14:00:00.310Z,69
2022-10-29T14:05:00.329Z,69
2022-10-29T14:10:00.288Z,70
2022-10-29T14:15:00.247Z,71
2022-10-29T14:20:00.259Z,71
2022-10-29T14:25:00.292Z,72
2022-10-29T14:30:00.267Z,72
2022-10-29T14:35:00.266Z,72
2022-10-29T14:40:00.253Z,73
2022-10-29T14:45:00.238Z,74
2022-10-29T14:50:00.254Z,74
2022-10-29T14:55:00.295Z,75
2022-10-29T15:00:00.330Z,75
2022-10-29T15:05:06.134Z,76
2022-10-29T15:10:00.249Z,76
2022-10-29T15:15:00.256Z,77
2022-10-29T15:20:00.253Z,78
2022-10-29T15:25:00.274Z,78
2022-10-29T15:30:00.285Z,79
2022-10-29T15:35:00.241Z,79
2022-10-29T15:40:00.234Z,78
2022-10-29T15:45:00.328Z,79
2022-10-29T15:50:00.231Z,79
2022-10-29T15:55:00.233Z,79
2022-10-29T16:00:00.409Z,79
2022-10-29T16:05:00.251Z,79
2022-10-29T16:10:00.464Z,80
2022-10-29T16:15:00.225Z,80
2022-10-29T16:20:00.412Z,81
2022-10-29T16:25:00.226Z,81
2022-10-29T16:30:00.369Z,81
2022-10-29T16:35:00.249Z,81
2022-10-29T16:40:00.244Z,81
2022-10-29T16:45:00.251Z,82
2022-10-29T16:50:00.238Z,82
2022-10-29T16:55:00.260Z,81
2022-10-29T17:00:00.253Z,82
2022-10-29T17:05:00.248Z,82
2022-10-29T17:10:00.247Z,82
2022-10-29T17:15:00.250Z,83
2022-10-29T17:20:00.257Z,83
2022-10-29T17:25:00.265Z,82
2022-10-29T17:30:00.215Z,82
2022-10-29T17:35:00.225Z,82
2022-10-29T17:40:03.265Z,83
2022-10-29T17:45:00.266Z,82
2022-10-29T17:50:00.238Z,81
2022-10-29T17:55:00.263Z,81
2022-10-29T18:00:00.210Z,81
2022-10-29T18:05:01.473Z,81
2022-10-29T18:10:00.240Z,82
2022-10-29T18:15:00.215Z,82
2022-10-29T18:20:00.225Z,82
2022-10-29T18:25:00.199Z,82
2022-10-29T18:30:00.229Z,82
2022-10-29T18:35:00.205Z,82
2022-10-29T18:40:00.203Z,82
2022-10-29T18:45:00.250Z,83
2022-10-29T18:50:00.234Z,83
2022-10-29T18:55:00.392Z,84
2022-10-29T19:00:00.215Z,83
2022-10-29T19:05:00.238Z,84
2022-10-29T19:10:00.208Z,84
2022-10-29T19:15:00.228Z,83
2022-10-29T19:20:00.240Z,83
2022-10-29T19:25:00.201Z,83
2022-10-29T19:30:00.215Z,83
2022-10-29T19:35:00.207Z,82
2022-10-29T19:40:00.204Z,81
2022-10-29T19:45:00.207Z,80
2022-10-29T19:50:00.265Z,79
2022-10-29T19:55:00.261Z,80
2022-10-29T20:00:00.314Z,79
2022-10-29T20:05:00.226Z,80
2022-10-29T20:10:00.242Z,80
2022-10-29T20:15:00.237Z,79
2022-10-29T20:20:00.294Z,79
2022-10-29T20:25:00.253Z,79
2022-10-29T20:30:00.232Z,79
2022-10-29T20:35:00.244Z,78
2022-10-29T20:40:00.240Z,77
2022-10-29T20:45:00.258Z,78
2022-10-29T20:50:00.260Z,76
2022-10-29T20:55:00.274Z,76
2022-10-29T21:00:01.224Z,76
2022-10-29T21:05:00.229Z,77
2022-10-29T21:10:00.248Z,76
2022-10-29T21:15:00.237Z,77
2022-10-29T21:20:00.251Z,77
2022-10-29T21:25:00.236Z,77
2022-10-29T21:30:00.257Z,77
2022-10-29T21:35:00.190Z,77
2022-10-29T21:40:03.393Z,77
2022-10-29T21:45:00.190Z,77
2022-10-29T21:50:00.209Z,77
2022-10-29T21:55:00.208Z,78
2022-10-29T22:00:00.297Z,77
2022-10-29T22:05:00.194Z,76
2022-10-29T22:10:00.195Z,77
2022-10-29T22:15:00.183Z,77
2022-10-29T22:20:00.224Z,77
2022-10-29T22:25:00.211Z,77
2022-10-29T22:30:00.215Z,78
2022-10-29T22:35:00.239Z,77
2022-10-29T22:40:00.235Z,77
2022-10-29T22:45:00.252Z,77
2022-10-29T22:50:00.245Z,76
2022-10-29T22:55:00.220Z,76
2022-10-29T23:00:00.241Z,76
2022-10-29T23:05:00.239Z,77
2022-10-29T23:10:00.221Z,77
2022-10-29T23:15:00.265Z,78
2022-10-29T23:20:00.233Z,79
2022-10-29T23:25:00.232Z,81
2022-10-29T23:30:00.240Z,80
2022-10-29T23:35:00.271Z,79
2022-10-29T23:40:00.225Z,78
2022-10-29T23:45:05.173Z,77
2022-10-29T23:50:00.218Z,78
2022-10-29T23:55:00.214Z,78
